createdAt,value
2023-01-20T00:01:12.317Z,0.30
2023-01-20T00:04:54.081Z,0.30
2023-01-20T00:08:35.992Z,0.30
2023-01-20T00:12:17.938Z,0.30
2023-01-20T00:16:02.128Z,0.30
2023-01-20T00:19:43.898Z,0.20
2023-01-20T00:23:25.623Z,0.20
2023-01-20T00:27:07.659Z,0.20
2023-01-20T00:30:49.528Z,0.10
2023-01-20T00:34:31.379Z,0.20
2023-01-20T00:38:13.227Z,0.20
2023-01-20T00:41:54.999Z,0.10
2023-01-20T00:45:36.765Z,0.10
2023-01-20T00:49:18.542Z,0.10
2023-01-20T00:53:00.329Z,0.10
2023-01-20T00:56:42.095Z,0.10
2023-01-20T01:00:24.043Z,0.10
2023-01-20T01:04:05.934Z,0.10
2023-01-20T01:07:47.677Z,0.10
2023-01-20T01:11:29.419Z,0.10
2023-01-20T01:15:12.104Z,0.10
2023-01-20T01:18:55.047Z,0.10
2023-01-20T01:22:36.768Z,0.10
2023-01-20T01:26:18.665Z,0.00
2023-01-20T01:30:00.437Z,0.10
2023-01-20T01:33:42.634Z,0.10
2023-01-20T01:37:24.510Z,0.00
2023-01-20T01:41:06.613Z,0.00
2023-01-20T01:45:28.041Z,0.10
2023-01-20T01:49:42.060Z,0.00
2023-01-20T01:53:25.066Z,0.00
2023-01-20T01:57:08.579Z,0.00
2023-01-20T02:00:50.821Z,0.00
2023-01-20T02:04:33.879Z,-0.10
2023-01-20T02:08:16.004Z,-0.10
2023-01-20T02:12:02.738Z,-0.10
2023-01-20T02:16:29.702Z,-0.20
2023-01-20T02:20:14.240Z,-0.10
2023-01-20T02:24:26.745Z,-0.10
2023-01-20T02:28:46.103Z,-0.20
2023-01-20T02:32:49.821Z,-0.20
2023-01-20T02:36:41.440Z,-0.20
2023-01-20T02:40:32.745Z,-0.30
2023-01-20T02:44:26.980Z,-0.30
2023-01-20T02:48:22.577Z,-0.30
2023-01-20T02:52:17.122Z,-0.40
2023-01-20T02:55:59.610Z,-0.40
2023-01-20T02:59:46.215Z,-0.40
2023-01-20T03:03:35.790Z,-0.40
2023-01-20T03:07:21.520Z,-0.50
2023-01-20T03:11:06.764Z,-0.50
2023-01-20T03:14:52.110Z,-0.50
2023-01-20T03:18:34.874Z,-0.50
2023-01-20T03:22:17.044Z,-0.50
2023-01-20T03:25:59.192Z,-0.50
2023-01-20T03:29:40.983Z,-0.50
2023-01-20T03:33:23.538Z,-0.60
2023-01-20T03:37:06.668Z,-0.60
2023-01-20T03:41:04.155Z,-0.60
2023-01-20T03:45:05.175Z,-0.60
2023-01-20T03:48:52.074Z,-0.70
2023-01-20T03:52:47.586Z,-0.60
2023-01-20T03:56:35.815Z,-0.60
2023-01-20T04:00:20.271Z,-0.60
2023-01-20T04:04:04.247Z,-0.60
2023-01-20T04:07:46.902Z,-0.60
2023-01-20T04:11:29.619Z,-0.60
2023-01-20T04:15:11.934Z,-0.60
2023-01-20T04:18:54.539Z,-0.60
2023-01-20T04:22:53.402Z,-0.60
2023-01-20T04:26:35.295Z,-0.60
2023-01-20T04:30:17.338Z,-0.60
2023-01-20T04:33:59.106Z,-0.60
2023-01-20T04:37:41.156Z,-0.60
2023-01-20T04:41:23.037Z,-0.60
2023-01-20T04:45:05.452Z,-0.50
2023-01-20T04:48:47.260Z,-0.50
2023-01-20T04:52:29.010Z,-0.50
2023-01-20T04:56:15.266Z,-0.50
2023-01-20T04:59:57.020Z,-0.50
2023-01-20T05:03:38.803Z,-0.60
2023-01-20T05:07:20.579Z,-0.60
2023-01-20T05:11:02.556Z,-0.60
2023-01-20T05:14:44.285Z,-0.60
2023-01-20T05:18:26.041Z,-0.70
2023-01-20T05:22:07.864Z,-0.70
2023-01-20T05:25:53.292Z,-0.70
2023-01-20T05:29:35.101Z,-0.70
2023-01-20T05:33:16.944Z,-0.70
2023-01-20T05:36:58.677Z,-0.70
2023-01-20T05:40:40.447Z,-0.70
2023-01-20T05:44:22.209Z,-0.70
2023-01-20T05:48:04.439Z,-0.70
2023-01-20T05:51:46.203Z,-0.70
2023-01-20T05:55:27.999Z,-0.80
2023-01-20T05:59:09.883Z,-0.80
2023-01-20T06:02:51.732Z,-0.80
2023-01-20T06:06:33.961Z,-0.90
2023-01-20T06:10:17.160Z,-0.80
2023-01-20T06:13:58.960Z,-0.80
2023-01-20T06:17:40.708Z,-0.80
2023-01-20T06:21:22.533Z,-0.80
2023-01-20T06:25:05.054Z,-0.80
2023-01-20T06:28:46.763Z,-0.80
2023-01-20T06:32:28.590Z,-0.80
2023-01-20T06:36:13.789Z,-0.80
2023-01-20T06:39:55.663Z,-0.80
2023-01-20T06:43:40.168Z,-0.80
2023-01-20T06:47:22.001Z,-0.80
2023-01-20T06:51:10.251Z,-0.90
2023-01-20T06:54:51.989Z,-0.90
2023-01-20T06:58:34.236Z,-0.90
2023-01-20T07:02:16.132Z,-0.90
2023-01-20T07:06:01.576Z,-0.90
2023-01-20T07:09:43.387Z,-0.90
2023-01-20T07:13:25.194Z,-0.90
2023-01-20T07:17:11.759Z,-1.00
2023-01-20T07:20:55.256Z,-1.00
2023-01-20T07:24:37.396Z,-0.90
2023-01-20T07:28:19.116Z,-1.00
2023-01-20T07:32:00.962Z,-1.00
2023-01-20T07:35:42.727Z,-1.00
2023-01-20T07:39:24.490Z,-1.00
2023-01-20T07:43:06.238Z,-1.00
2023-01-20T07:47:03.126Z,-1.00
2023-01-20T07:50:44.926Z,-1.00
2023-01-20T07:54:26.671Z,-1.00
2023-01-20T07:58:08.397Z,-1.10
2023-01-20T08:01:50.230Z,-1.10
2023-01-20T08:05:32.551Z,-1.10
2023-01-20T08:09:15.066Z,-1.10
2023-01-20T08:12:58.090Z,-1.20
2023-01-20T08:16:39.891Z,-1.20
2023-01-20T08:20:21.938Z,-1.20
2023-01-20T08:24:05.531Z,-1.20
2023-01-20T08:27:49.384Z,-1.20
2023-01-20T08:31:31.493Z,-1.30
2023-01-20T08:35:13.801Z,-1.30
2023-01-20T08:38:57.673Z,-1.30
2023-01-20T08:42:40.180Z,-1.30
2023-01-20T08:46:22.848Z,-1.30
2023-01-20T08:50:06.697Z,-1.30
2023-01-20T08:53:49.407Z,-1.20
2023-01-20T08:57:31.252Z,-1.20
2023-01-20T09:01:19.198Z,-1.20
2023-01-20T09:05:00.938Z,-1.20
2023-01-20T09:08:42.798Z,-1.10
2023-01-20T09:12:24.549Z,-1.00
2023-01-20T09:16:06.683Z,-0.90
2023-01-20T09:19:48.556Z,-0.80
2023-01-20T09:23:30.296Z,-0.70
2023-01-20T09:27:12.113Z,-0.60
2023-01-20T09:31:08.329Z,-0.50
2023-01-20T09:34:50.158Z,-0.40
2023-01-20T09:38:50.583Z,-0.20
2023-01-20T09:43:13.685Z,-0.10
2023-01-20T09:47:19.988Z,0.10
2023-01-20T09:51:28.372Z,0.30
2023-01-20T09:55:28.018Z,0.50
2023-01-20T09:59:36.666Z,0.80
2023-01-20T10:03:27.252Z,1.50
2023-01-20T10:07:15.299Z,2.60
2023-01-20T10:11:12.577Z,3.90
2023-01-20T10:15:14.513Z,5.10
2023-01-20T10:19:08.440Z,6.20
2023-01-20T10:23:01.021Z,7.60
2023-01-20T10:26:58.000Z,8.60
2023-01-20T10:30:39.958Z,9.40
2023-01-20T10:34:22.594Z,10.20
2023-01-20T10:38:08.892Z,11.00
2023-01-20T10:41:54.862Z,11.70
2023-01-20T10:46:12.233Z,12.40
2023-01-20T10:50:10.455Z,13.00
2023-01-20T10:54:23.915Z,13.60
2023-01-20T10:58:14.766Z,14.00
2023-01-20T11:02:11.410Z,14.50
2023-01-20T11:05:54.242Z,14.80
2023-01-20T11:09:37.813Z,15.10
2023-01-20T11:13:19.692Z,15.40
2023-01-20T11:17:05.261Z,15.60
2023-01-20T11:20:56.548Z,15.80
2023-01-20T11:24:45.482Z,16.20
2023-01-20T11:28:35.280Z,16.50
2023-01-20T11:32:29.430Z,16.70
2023-01-20T11:36:23.945Z,17.00
2023-01-20T11:40:23.624Z,17.10
2023-01-20T11:44:07.078Z,17.50
2023-01-20T11:48:18.420Z,17.70
2023-01-20T11:52:01.006Z,18.10
2023-01-20T11:55:51.227Z,18.30
2023-01-20T11:59:35.439Z,18.70
2023-01-20T12:03:49.474Z,18.90
2023-01-20T12:07:45.548Z,19.20
2023-01-20T12:11:42.925Z,19.50
2023-01-20T12:15:31.912Z,19.80
2023-01-20T12:19:18.024Z,19.90
2023-01-20T12:23:23.680Z,20.10
2023-01-20T12:27:05.536Z,20.30
2023-01-20T12:31:01.867Z,20.40
2023-01-20T12:34:43.634Z,20.70
2023-01-20T12:38:26.515Z,20.90
2023-01-20T12:42:14.087Z,20.60
2023-01-20T12:46:14.422Z,20.20
2023-01-20T12:50:17.838Z,19.80
2023-01-20T12:54:47.469Z,19.60
2023-01-20T12:58:49.937Z,19.10
2023-01-20T13:03:09.436Z,18.50
2023-01-20T13:07:18.935Z,17.70
2023-01-20T13:11:09.728Z,17.20
2023-01-20T13:15:18.081Z,16.50
2023-01-20T13:19:28.021Z,15.70
2023-01-20T13:23:15.016Z,15.00
2023-01-20T13:26:57.775Z,14.50
2023-01-20T13:30:44.126Z,14.30
2023-01-20T13:34:30.818Z,13.90
2023-01-20T13:38:20.500Z,13.60
2023-01-20T13:42:02.299Z,13.30
2023-01-20T13:45:44.158Z,12.90
2023-01-20T13:49:28.820Z,12.90
2023-01-20T13:53:10.528Z,12.90
2023-01-20T13:56:52.656Z,13.10
2023-01-20T14:00:34.416Z,13.10
2023-01-20T14:04:21.881Z,13.10
2023-01-20T14:08:04.456Z,13.00
2023-01-20T14:11:51.360Z,12.80
2023-01-20T14:15:36.692Z,12.40
2023-01-20T14:19:23.320Z,12.10
2023-01-20T14:23:24.565Z,11.70
2023-01-20T14:27:17.556Z,11.60
2023-01-20T14:31:25.729Z,11.40
2023-01-20T14:35:31.105Z,11.20
2023-01-20T14:39:21.755Z,11.00
2023-01-20T14:43:19.570Z,10.80
2023-01-20T14:47:03.436Z,10.70
2023-01-20T14:50:49.706Z,10.60
2023-01-20T14:54:34.541Z,10.80
2023-01-20T14:58:18.292Z,11.60
2023-01-20T15:02:05.505Z,12.60
2023-01-20T15:06:05.548Z,13.50
2023-01-20T15:10:04.325Z,14.40
2023-01-20T15:13:57.187Z,14.80
2023-01-20T15:18:11.042Z,14.80
2023-01-20T15:21:58.436Z,14.20
2023-01-20T15:25:40.202Z,13.40
2023-01-20T15:29:24.220Z,12.70
2023-01-20T15:33:08.521Z,12.10
2023-01-20T15:36:52.111Z,11.60
2023-01-20T15:40:35.626Z,11.20
2023-01-20T15:44:17.370Z,10.80
2023-01-20T15:47:59.636Z,10.60
2023-01-20T15:51:42.726Z,10.40
2023-01-20T15:55:24.572Z,10.20
2023-01-20T15:59:13.965Z,10.00
2023-01-20T16:02:55.791Z,9.90
2023-01-20T16:06:37.813Z,9.70
2023-01-20T16:10:19.951Z,9.50
2023-01-20T16:14:01.702Z,9.50
2023-01-20T16:17:43.865Z,9.40
2023-01-20T16:21:25.784Z,9.30
2023-01-20T16:25:08.887Z,9.20
2023-01-20T16:28:51.681Z,9.10
2023-01-20T16:32:33.436Z,8.90
2023-01-20T16:36:18.559Z,8.80
2023-01-20T16:40:00.318Z,8.60
2023-01-20T16:43:42.308Z,8.50
2023-01-20T16:47:24.072Z,8.30
2023-01-20T16:51:06.518Z,8.20
2023-01-20T16:54:48.292Z,8.10
2023-01-20T16:58:30.022Z,7.90
2023-01-20T17:02:12.095Z,7.80
2023-01-20T17:05:57.446Z,7.70
2023-01-20T17:09:39.257Z,7.50
2023-01-20T17:13:21.025Z,7.40
2023-01-20T17:17:02.808Z,7.30
2023-01-20T17:20:44.740Z,7.20
2023-01-20T17:24:26.686Z,7.10
2023-01-20T17:28:08.448Z,7.00
2023-01-20T17:31:50.418Z,6.80
2023-01-20T17:35:32.194Z,6.70
2023-01-20T17:39:14.039Z,6.60
2023-01-20T17:42:55.798Z,6.40
2023-01-20T17:46:37.547Z,6.30
2023-01-20T17:50:19.343Z,6.10
2023-01-20T17:54:03.585Z,6.10
2023-01-20T17:57:45.823Z,5.90
2023-01-20T18:01:29.917Z,5.80
2023-01-20T18:05:11.671Z,5.70
2023-01-20T18:08:58.882Z,5.50
2023-01-20T18:12:41.005Z,5.40
2023-01-20T18:16:28.801Z,5.30
2023-01-20T18:20:12.057Z,5.20
2023-01-20T18:23:54.466Z,5.10
2023-01-20T18:27:36.235Z,5.00
2023-01-20T18:31:20.095Z,4.80
2023-01-20T18:35:01.972Z,4.80
2023-01-20T18:38:44.028Z,4.70
2023-01-20T18:42:25.867Z,4.50
2023-01-20T18:46:08.747Z,4.50
2023-01-20T18:49:50.613Z,4.40
2023-01-20T18:53:32.789Z,4.30
2023-01-20T18:57:14.564Z,4.20
2023-01-20T19:01:03.766Z,4.10
2023-01-20T19:04:45.627Z,4.10
2023-01-20T19:08:27.512Z,4.00
2023-01-20T19:12:09.307Z,3.90
2023-01-20T19:15:52.671Z,3.80
2023-01-20T19:19:34.494Z,3.80
2023-01-20T19:23:16.506Z,3.60
2023-01-20T19:27:00.586Z,3.60
2023-01-20T19:30:42.414Z,3.50
2023-01-20T19:34:25.519Z,3.50
2023-01-20T19:38:07.419Z,3.40
2023-01-20T19:41:49.168Z,3.30
2023-01-20T19:45:44.793Z,3.30
2023-01-20T19:49:27.309Z,3.20
2023-01-20T19:53:09.050Z,3.20
2023-01-20T19:56:53.191Z,3.10
2023-01-20T20:00:34.985Z,3.00
2023-01-20T20:04:20.636Z,3.00
2023-01-20T20:08:02.673Z,2.90
2023-01-20T20:11:44.924Z,2.80
2023-01-20T20:15:26.720Z,2.80
2023-01-20T20:19:11.762Z,2.60
2023-01-20T20:22:54.305Z,2.40
2023-01-20T20:26:37.816Z,2.40
2023-01-20T20:30:19.586Z,2.40
2023-01-20T20:34:03.179Z,2.40
2023-01-20T20:37:48.021Z,2.30
2023-01-20T20:41:31.688Z,2.40
2023-01-20T20:45:13.652Z,2.20
2023-01-20T20:48:59.227Z,2.20
2023-01-20T20:52:41.030Z,2.10
2023-01-20T20:56:23.251Z,2.10
2023-01-20T21:00:06.274Z,2.00
2023-01-20T21:03:48.013Z,2.00
2023-01-20T21:07:29.792Z,1.90
2023-01-20T21:11:13.047Z,1.90
2023-01-20T21:14:54.806Z,1.90
2023-01-20T21:18:38.218Z,1.80
2023-01-20T21:22:20.077Z,1.80
2023-01-20T21:26:04.055Z,1.70
2023-01-20T21:29:46.545Z,1.60
2023-01-20T21:33:28.326Z,1.50
2023-01-20T21:37:10.147Z,1.40
2023-01-20T21:41:01.291Z,1.30
2023-01-20T21:44:43.282Z,1.20
2023-01-20T21:48:43.516Z,1.10
2023-01-20T21:52:45.347Z,1.10
2023-01-20T21:56:27.114Z,1.10
2023-01-20T22:00:10.230Z,1.00
2023-01-20T22:03:51.958Z,1.00
2023-01-20T22:07:33.719Z,1.00
2023-01-20T22:11:15.495Z,0.90
2023-01-20T22:14:57.245Z,0.90
2023-01-20T22:18:39.023Z,0.90
2023-01-20T22:22:21.181Z,0.90
2023-01-20T22:26:03.630Z,0.90
2023-01-20T22:29:46.152Z,0.80
2023-01-20T22:33:27.941Z,0.80
2023-01-20T22:37:09.716Z,0.80
2023-01-20T22:40:51.459Z,0.70
2023-01-20T22:44:33.236Z,0.70
2023-01-20T22:48:15.052Z,0.60
2023-01-20T22:51:56.914Z,0.60
2023-01-20T22:55:48.874Z,0.60
2023-01-20T22:59:37.723Z,0.50
2023-01-20T23:03:19.953Z,0.50
2023-01-20T23:07:01.763Z,0.40
2023-01-20T23:10:46.208Z,0.40
2023-01-20T23:14:46.574Z,0.40
2023-01-20T23:18:29.573Z,0.30
2023-01-20T23:22:11.371Z,0.20
2023-01-20T23:26:05.183Z,0.30
2023-01-20T23:29:49.187Z,0.20
2023-01-20T23:33:31.433Z,0.10
2023-01-20T23:37:13.731Z,0.10
2023-01-20T23:40:55.515Z,0.00
2023-01-20T23:44:37.279Z,0.00
2023-01-20T23:48:19.078Z,0.00
2023-01-20T23:52:00.811Z,-0.10
2023-01-20T23:55:42.617Z,-0.10
2023-01-20T23:59:24.407Z,-0.10
